createdAt,value
2022-08-24T00:02:21.252Z,23.34
2022-08-24T00:07:27.396Z,23.31
2022-08-24T00:12:31.593Z,23.25
2022-08-24T00:17:34.978Z,23.20
2022-08-24T00:22:39.145Z,23.22
2022-08-24T00:27:42.451Z,23.20
2022-08-24T00:32:47.060Z,23.18
2022-08-24T00:37:51.896Z,23.17
2022-08-24T00:42:56.601Z,23.12
2022-08-24T00:48:03.595Z,23.11
2022-08-24T00:53:13.717Z,23.11
2022-08-24T00:58:22.219Z,23.12
2022-08-24T01:03:28.057Z,23.12
2022-08-24T01:08:31.074Z,23.07
2022-08-24T01:13:35.028Z,23.08
2022-08-24T01:18:51.695Z,23.12
2022-08-24T01:24:00.869Z,23.17
2022-08-24T01:29:11.751Z,23.14
2022-08-24T01:34:14.963Z,23.10
2022-08-24T01:39:29.387Z,23.08
2022-08-24T01:44:35.012Z,23.09
2022-08-24T01:49:41.781Z,23.11
2022-08-24T01:54:45.928Z,23.13
2022-08-24T01:59:48.969Z,23.11
2022-08-24T02:04:52.152Z,23.10
2022-08-24T02:09:55.469Z,23.13
2022-08-24T02:15:01.038Z,23.14
2022-08-24T02:20:05.580Z,23.14
2022-08-24T02:25:08.847Z,23.11
2022-08-24T02:30:18.014Z,23.10
2022-08-24T02:35:22.564Z,23.14
2022-08-24T02:40:25.949Z,23.15
2022-08-24T02:45:29.254Z,23.14
2022-08-24T02:50:32.278Z,23.09
2022-08-24T02:55:36.488Z,23.03
2022-08-24T03:00:40.768Z,23.01
2022-08-24T03:05:43.742Z,23.02
2022-08-24T03:10:46.638Z,23.02
2022-08-24T03:15:50.084Z,23.02
2022-08-24T03:20:57.962Z,23.06
2022-08-24T03:26:02.250Z,23.09
2022-08-24T03:31:06.023Z,23.05
2022-08-24T03:36:13.949Z,23.05
2022-08-24T03:41:17.787Z,23.02
2022-08-24T03:46:27.378Z,22.99
2022-08-24T03:51:30.793Z,23.00
2022-08-24T03:56:34.333Z,23.01
2022-08-24T04:01:38.621Z,22.98
2022-08-24T04:06:44.615Z,22.95
2022-08-24T04:11:47.909Z,22.95
2022-08-24T04:16:57.581Z,22.97
2022-08-24T04:22:05.997Z,23.01
2022-08-24T04:27:09.087Z,23.02
2022-08-24T04:32:15.725Z,22.96
2022-08-24T04:37:18.545Z,22.91
2022-08-24T04:42:31.723Z,22.96
2022-08-24T04:47:37.213Z,22.98
2022-08-24T04:52:40.540Z,23.00
2022-08-24T04:57:43.681Z,23.01
2022-08-24T05:02:47.202Z,23.03
2022-08-24T05:07:53.470Z,23.07
2022-08-24T05:12:59.673Z,23.11
2022-08-24T05:18:03.205Z,23.14
2022-08-24T05:23:06.259Z,23.12
2022-08-24T05:28:09.804Z,23.17
2022-08-24T05:33:14.036Z,23.20
2022-08-24T05:38:16.988Z,23.19
2022-08-24T05:43:19.856Z,23.22
2022-08-24T05:48:24.024Z,23.25
2022-08-24T05:53:36.662Z,23.30
2022-08-24T05:58:40.834Z,23.36
2022-08-24T06:03:44.777Z,23.39
2022-08-24T06:08:52.072Z,23.42
2022-08-24T06:13:59.930Z,23.46
2022-08-24T06:19:06.222Z,23.51
2022-08-24T06:24:09.795Z,23.56
2022-08-24T06:29:13.034Z,23.62
2022-08-24T06:34:20.259Z,23.66
2022-08-24T06:39:24.230Z,23.70
2022-08-24T06:44:29.759Z,23.75
2022-08-24T06:49:39.859Z,23.79
2022-08-24T06:54:43.230Z,23.81
2022-08-24T06:59:46.469Z,23.81
2022-08-24T07:04:49.878Z,23.80
2022-08-24T07:10:11.651Z,23.80
2022-08-24T07:15:16.306Z,23.90
2022-08-24T07:20:22.057Z,23.94
2022-08-24T07:25:46.201Z,23.95
2022-08-24T07:30:52.330Z,23.95
2022-08-24T07:35:56.272Z,23.99
2022-08-24T07:41:38.214Z,24.08
2022-08-24T07:46:24.092Z,24.09
2022-08-24T07:51:27.548Z,24.12
2022-08-24T07:56:31.923Z,24.19
2022-08-24T08:01:37.749Z,24.32
2022-08-24T08:06:44.056Z,24.41
2022-08-24T08:11:47.188Z,24.46
2022-08-24T08:16:50.496Z,24.52
2022-08-24T08:22:12.945Z,24.58
2022-08-24T08:27:38.764Z,24.67
2022-08-24T08:32:41.848Z,24.77
2022-08-24T08:37:45.015Z,24.82
2022-08-24T08:43:10.638Z,24.84
2022-08-24T08:48:40.009Z,24.89
2022-08-24T08:54:20.928Z,24.91
2022-08-24T08:59:50.137Z,24.97
2022-08-24T09:05:00.356Z,25.07
2022-08-24T09:10:32.248Z,25.15
2022-08-24T09:15:38.142Z,25.18
2022-08-24T09:21:09.390Z,25.18
2022-08-24T09:26:29.955Z,25.24
2022-08-24T09:32:01.006Z,25.28
2022-08-24T09:37:09.986Z,25.36
2022-08-24T09:42:25.678Z,25.43
2022-08-24T09:47:56.592Z,25.49
2022-08-24T09:53:30.212Z,25.62
2022-08-24T09:58:50.586Z,25.71
2022-08-24T10:04:14.813Z,25.68
2022-08-24T10:09:39.153Z,25.71
2022-08-24T10:15:09.883Z,25.87
2022-08-24T10:20:35.777Z,25.92
2022-08-24T10:25:57.499Z,25.95
2022-08-24T10:31:12.467Z,25.95
2022-08-24T10:36:34.728Z,25.91
2022-08-24T10:42:11.499Z,25.88
2022-08-24T10:47:29.219Z,26.02
2022-08-24T10:52:54.164Z,26.16
2022-08-24T10:58:15.701Z,26.29
2022-08-24T11:03:27.660Z,26.39
2022-08-24T11:08:35.207Z,26.60
2022-08-24T11:13:52.500Z,26.76
2022-08-24T11:18:57.940Z,27.01
2022-08-24T11:24:07.205Z,27.08
2022-08-24T11:29:10.126Z,27.14
2022-08-24T11:34:33.742Z,27.35
2022-08-24T11:39:38.002Z,27.43
2022-08-24T11:44:51.039Z,27.31
2022-08-24T11:50:19.853Z,27.17
2022-08-24T11:55:32.410Z,27.13
2022-08-24T12:00:55.459Z,27.44
2022-08-24T12:06:33.939Z,27.87
2022-08-24T12:12:04.201Z,28.28
2022-08-24T12:17:23.268Z,28.46
2022-08-24T12:22:28.516Z,28.77
2022-08-24T12:27:37.848Z,28.99
2022-08-24T12:33:00.925Z,29.15
2022-08-24T12:38:25.732Z,29.05
2022-08-24T12:43:38.108Z,28.80
2022-08-24T12:48:43.920Z,28.59
2022-08-24T12:54:08.314Z,28.47
2022-08-24T12:59:26.268Z,28.39
2022-08-24T13:04:51.233Z,28.27
2022-08-24T13:09:57.137Z,28.18
2022-08-24T13:15:28.618Z,28.10
2022-08-24T13:20:37.459Z,28.03
2022-08-24T13:26:01.411Z,27.90
2022-08-24T13:31:22.383Z,27.78
2022-08-24T13:36:31.186Z,27.66
2022-08-24T13:41:55.662Z,27.52
2022-08-24T13:47:07.768Z,27.43
2022-08-24T13:52:22.526Z,27.43
2022-08-24T13:57:37.072Z,27.88
2022-08-24T14:03:12.261Z,28.48
2022-08-24T14:08:59.635Z,29.10
2022-08-24T14:14:03.426Z,29.64
2022-08-24T14:19:24.674Z,29.99
2022-08-24T14:24:46.291Z,30.24
2022-08-24T14:29:49.782Z,30.35
2022-08-24T14:35:16.120Z,30.40
2022-08-24T14:40:38.124Z,30.30
2022-08-24T14:45:56.449Z,30.13
2022-08-24T14:51:05.491Z,29.89
2022-08-24T14:56:08.493Z,29.62
2022-08-24T15:01:39.025Z,29.42
2022-08-24T15:06:58.893Z,29.24
2022-08-24T15:12:20.711Z,29.15
2022-08-24T15:17:48.286Z,29.12
2022-08-24T15:23:04.251Z,29.09
2022-08-24T15:28:14.985Z,29.04
2022-08-24T15:33:19.809Z,28.98
2022-08-24T15:38:31.643Z,28.90
2022-08-24T15:43:39.353Z,28.82
2022-08-24T15:48:47.940Z,28.75
2022-08-24T15:53:51.077Z,28.50
2022-08-24T15:58:54.147Z,27.99
2022-08-24T16:04:00.847Z,27.45
2022-08-24T16:09:22.474Z,27.04
2022-08-24T16:14:34.020Z,26.72
2022-08-24T16:19:38.368Z,26.47
2022-08-24T16:24:42.346Z,26.29
2022-08-24T16:29:50.305Z,26.15
2022-08-24T16:35:15.253Z,26.04
2022-08-24T16:40:19.362Z,25.95
2022-08-24T16:45:23.717Z,25.87
2022-08-24T16:50:27.198Z,25.80
2022-08-24T16:55:30.611Z,25.69
2022-08-24T17:00:33.798Z,25.62
2022-08-24T17:05:38.163Z,25.54
2022-08-24T17:10:43.999Z,25.46
2022-08-24T17:15:50.749Z,25.40
2022-08-24T17:20:56.441Z,25.34
2022-08-24T17:26:00.276Z,25.28
2022-08-24T17:31:03.466Z,25.24
2022-08-24T17:36:07.770Z,25.24
2022-08-24T17:41:18.621Z,25.30
2022-08-24T17:46:22.585Z,25.33
2022-08-24T17:51:25.607Z,25.33
2022-08-24T17:56:32.557Z,25.28
2022-08-24T18:01:38.509Z,25.19
2022-08-24T18:06:41.377Z,25.11
2022-08-24T18:11:44.392Z,24.93
2022-08-24T18:16:50.181Z,24.73
2022-08-24T18:21:57.429Z,24.59
2022-08-24T18:27:10.784Z,24.46
2022-08-24T18:32:14.162Z,24.39
2022-08-24T18:37:17.468Z,24.33
2022-08-24T18:42:27.471Z,24.32
2022-08-24T18:47:30.602Z,24.25
2022-08-24T18:52:35.041Z,24.18
2022-08-24T18:57:37.965Z,24.09
2022-08-24T19:02:41.956Z,24.01
2022-08-24T19:07:48.937Z,23.94
2022-08-24T19:12:57.861Z,23.90
2022-08-24T19:18:00.959Z,23.85
2022-08-24T19:23:10.920Z,23.83
2022-08-24T19:28:14.206Z,23.79
2022-08-24T19:33:27.162Z,23.73
2022-08-24T19:38:30.667Z,23.69
2022-08-24T19:43:33.661Z,23.64
2022-08-24T19:48:39.808Z,23.65
2022-08-24T19:53:43.182Z,23.70
2022-08-24T19:58:52.104Z,23.72
2022-08-24T20:03:55.092Z,23.70
2022-08-24T20:08:58.941Z,23.65
2022-08-24T20:14:02.870Z,23.64
2022-08-24T20:19:06.289Z,23.65
2022-08-24T20:24:11.448Z,23.64
2022-08-24T20:29:14.426Z,23.65
2022-08-24T20:34:19.156Z,23.64
2022-08-24T20:39:25.429Z,23.59
2022-08-24T20:44:28.313Z,23.52
2022-08-24T20:49:32.896Z,23.47
2022-08-24T20:54:39.620Z,23.41
2022-08-24T20:59:43.194Z,23.42
2022-08-24T21:04:46.112Z,23.46
2022-08-24T21:09:49.080Z,23.46
2022-08-24T21:14:56.265Z,23.44
2022-08-24T21:19:59.522Z,23.39
2022-08-24T21:25:06.915Z,23.33
2022-08-24T21:30:13.117Z,23.28
2022-08-24T21:35:16.127Z,23.23
2022-08-24T21:40:20.345Z,23.23
2022-08-24T21:45:24.210Z,23.22
2022-08-24T21:50:27.106Z,23.17
2022-08-24T21:55:30.019Z,23.09
2022-08-24T22:00:35.300Z,23.00
2022-08-24T22:05:38.281Z,22.98
2022-08-24T22:10:41.580Z,22.96
2022-08-24T22:15:45.081Z,22.96
2022-08-24T22:20:48.132Z,22.95
2022-08-24T22:25:53.571Z,22.91
2022-08-24T22:30:56.807Z,22.84
2022-08-24T22:35:59.693Z,22.81
2022-08-24T22:41:02.815Z,22.81
2022-08-24T22:46:05.674Z,22.82
2022-08-24T22:51:10.454Z,22.80
2022-08-24T22:56:25.036Z,22.76
2022-08-24T23:01:32.796Z,22.74
2022-08-24T23:06:35.825Z,22.77
2022-08-24T23:11:40.186Z,22.81
2022-08-24T23:16:45.132Z,22.80
2022-08-24T23:21:48.070Z,22.74
2022-08-24T23:26:51.352Z,22.69
2022-08-24T23:31:54.534Z,22.62
2022-08-24T23:36:57.448Z,22.59
2022-08-24T23:42:01.139Z,22.55
2022-08-24T23:47:04.338Z,22.54
2022-08-24T23:52:07.409Z,22.51
2022-08-24T23:57:10.484Z,22.48
